Many, Louisiana
Current Conditions -  °F | °C
As of 3:56 AM on Tuesday 21 Oct 2014 (Local Time) from KAQV Reporting Station
Clear Clear  
Wind Chill: 55°   Ceiling: Unl
Heat Index: 55°   Visibility: 8mi
Dew Point: 53°   Wind: 0mph
Humidity: 93%   Direction: NA
Pressure: 30.01"   Gusts: NA
Location:  31.57°N, 93.48°W
Report Text: KAQV 210856Z AUTO 00000KT 8SM CLR 13/12 A3001 RMK AO2 SLP161 T01280117 56002
Loading
Personal Weather Stations






























Interactive Weather Map
Tropical Storm Tracking
New forecast layout! Learn more

10-Day Weather Forecast

Advertisements
Track Severe Weather on mobile